KMKE/MKE METAR and TAF weather

Enter ICAO airport designator
Station Type Date Time Source
KMKE METAR 2020/09/22 22:52 UTC NOAA

KMKE 222252Z 20006KT 10SM FEW150 24/13 A3006 RMK AO2 SLP177 T02390128 $


Station Type Date Time Source
KMKE Decoded METAR 2020/09/22 22:52 UTC NOAA

GEN MITCHELL INTERNATIONAL AIRPORT, WI, United States (KMKE) 42-57N 87-54W 206M
Sep 22, 2020 - 06:52 PM EDT / 2020.09.22 2252 UTC
Wind: from the SSW (200 degrees) at 7 MPH (6 KT):0
Visibility: 10 mile(s):0
Sky conditions: mostly clear
Temperature: 75.0 F (23.9 C)
Dew Point: 55.0 F (12.8 C)
Relative Humidity: 49%
Pressure (altimeter): 30.06 in. Hg (1017 hPa)
ob: KMKE 222252Z 20006KT 10SM FEW150 24/13 A3006 RMK AO2 SLP177 T02390128
cycle: 23

Station Type Date Time Source
KMKE TAF 2020/09/22 21:51 UTC NOAA

TAF
AMD KMKE 222049Z 2221/2324 23008KT P6SM FEW200
FM230000 23005KT P6SM FEW250
FM231500 25006KT P6SM FEW250
FM231800 23007KT P6SM SCT040

Example: see airport list